Tunker, Indiana
Current Conditions -  °F | °C
As of 5:55 PM on Saturday 20 Dec 2014 (Local Time) from KHHG Reporting Station
Overcast Overcast  
Wind Chill: 31°   Ceiling: 3000
Heat Index: 31°   Visibility: 10mi
Dew Point: 26°   Wind: 3mph
Humidity: 82%   Direction: 270°W
Pressure: 30.27"   Gusts: NA
Location:  41.056°N, 85.6112°W
Report Text: KHHG 202255Z AUTO 27003KT 10SM OVC030 00/M03 A3027 RMK AO2 T10051033
Loading
Personal Weather Stations






























Interactive Weather Map New forecast layout! Learn more

10-Day Weather Forecast

Advertisements
Track Severe Weather on mobile